Electra, TX

12:43 AM CDT on August 29, 2014 (GMT -0500)
Sheppard Air Force Base-Wichita Falls Municipal | Change Station
CLOSE
Current Station
Airport
Location: Wichita Falls,
Elevation: 1030 ft
Nearby Weather Stations

Elev 1030 ft 33.98 °N, 98.49 °W | Updated 6 minutes ago

Light Rain
Light Rain
70 °F
Feels Like 70 °F
N
17
Wind Variable Wind from South

Today
High -- | Low -- °F
--% Chance of Precip.
Yesterday
High -- | Low -- °F
Precip. -- in
7:07 AM 8:05 PM
Waxing Crescent, 12% visible
Pressure 29.92 in
Visibility 7.0 miles
Clouds Scattered Clouds 7000 ft
Mostly Cloudy 9500 ft
Overcast 12000 ft
Dew Point 65 °F
Humidity 84%
Rainfall 0.00 in
Snow Depth Not available.
UV 0 out of 12
Pollen 10.00 out of 12
Air Quality Not available.
Flu Activity Not available.
SPECI KSPS 290537Z AUTO 19015KT 7SM -RA SCT070 BKN095 OVC120 21/18 A2992 RMK AO2 WSHFT 0517 P0009 T02110183 TSNO

More Conditions Fewer Conditions

Pressure 29.92 in
Visibility 7.0 miles
Clouds Scattered Clouds 7000 ft
Mostly Cloudy 9500 ft
Overcast 12000 ft
Dew Point 65 °F
Humidity 84%
Rainfall 0.00 in
Snow Depth Not available.
UV 0 out of 12
Pollen 10.00 out of 12
Air Quality Not available.
Flu Activity Not available.
SPECI KSPS 290537Z AUTO 19015KT 7SM -RA SCT070 BKN095 OVC120 21/18 A2992 RMK AO2 WSHFT 0517 P0009 T02110183 TSNO

More Conditions Fewer Conditions

10-Day Weather Forecast

Almanac

Astronomy

Aug. 29, 2014 Rise Set
Actual Time 7:07 AM CDT 8:05 PM CDT
Civil Twilight 6:41 AM CDT 8:30 PM CDT
Nautical Twilight 6:11 AM CDT 9:01 PM CDT
Astronomical Twilight 5:39 AM CDT 9:32 PM CDT
Moon 10:45 AM CDT 10:17 PM CDT
Length of Visible Light 13h 49m
Length of Day
12h 58m
Tomorrow will be 2m 1s shorter.
Waxing Crescent, 12% of the Moon is Illuminated
Today
Waxing Crescent
Sep 2
First Quarter
Sep 8
Full
Sep 15
Last Quarter
Sep 24
New

Today's Extremes

State Highs State Lows

Community

WunderPhotos

Upload Photos

1,748,197 photos uploaded!

Nearby

Snow Depth

Station Depth Elevation
No new snow has been reported.

Earthquake Activity

City Distance Mag. Time & Date
Guthrie, Oklahoma 149 miles 3.2 11:05 AM CDT
2014-08-26
Harrah, Oklahoma 142 miles 2.5 8:53 AM CDT
2014-08-26
Minimum magnitude displayed is 2.5.

Coastal Water Temperatures

Place Temperature
No Stations Reporting

Nearby Weather Stations